createdAt,value
2022-08-28T00:02:16.010Z,49.09
2022-08-28T00:07:19.643Z,48.72
2022-08-28T00:12:21.892Z,50.45
2022-08-28T00:17:23.981Z,51.58
2022-08-28T00:22:26.078Z,50.30
2022-08-28T00:27:46.878Z,44.63
2022-08-28T00:32:49.456Z,41.01
2022-08-28T00:37:52.311Z,40.75
2022-08-28T00:42:55.056Z,40.82
2022-08-28T00:47:57.135Z,40.53
2022-08-28T00:53:00.962Z,40.47
2022-08-28T00:58:03.484Z,41.64
2022-08-28T01:03:06.689Z,41.75
2022-08-28T01:08:08.667Z,42.37
2022-08-28T01:13:10.969Z,42.42
2022-08-28T01:18:15.921Z,42.43
2022-08-28T01:23:25.890Z,42.90
2022-08-28T01:28:27.964Z,42.57
2022-08-28T01:33:30.152Z,42.92
2022-08-28T01:38:32.183Z,43.53
2022-08-28T01:43:34.135Z,43.38
2022-08-28T01:48:39.402Z,43.94
2022-08-28T01:53:42.220Z,44.11
2022-08-28T01:58:50.362Z,44.36
2022-08-28T02:03:53.185Z,44.90
2022-08-28T02:08:55.783Z,45.16
2022-08-28T02:13:58.058Z,45.23
2022-08-28T02:19:01.964Z,45.27
2022-08-28T02:24:05.101Z,45.54
2022-08-28T02:29:06.933Z,45.63
2022-08-28T02:34:11.709Z,46.23
2022-08-28T02:39:13.969Z,45.76
2022-08-28T02:44:17.531Z,46.27
2022-08-28T02:49:19.665Z,46.12
2022-08-28T02:54:22.119Z,46.79
2022-08-28T02:59:24.549Z,47.01
2022-08-28T03:04:26.576Z,47.86
2022-08-28T03:09:28.625Z,47.64
2022-08-28T03:14:31.047Z,47.74
2022-08-28T03:19:33.553Z,47.24
2022-08-28T03:24:35.494Z,46.64
2022-08-28T03:29:37.653Z,46.80
2022-08-28T03:34:41.219Z,46.12
2022-08-28T03:39:43.139Z,45.68
2022-08-28T03:44:45.330Z,45.86
2022-08-28T03:49:47.650Z,45.73
2022-08-28T03:54:49.676Z,45.80
2022-08-28T03:59:53.449Z,46.10
2022-08-28T04:04:55.475Z,46.29
2022-08-28T04:09:57.474Z,46.62
2022-08-28T04:14:59.460Z,46.43
2022-08-28T04:20:01.448Z,46.70
2022-08-28T04:25:04.144Z,46.45
2022-08-28T04:30:09.973Z,46.68
2022-08-28T04:35:13.275Z,46.05
2022-08-28T04:40:18.791Z,46.56
2022-08-28T04:45:24.022Z,46.02
2022-08-28T04:50:25.976Z,46.18
2022-08-28T04:55:51.571Z,46.34
2022-08-28T05:00:51.509Z,46.48
2022-08-28T05:05:54.465Z,46.41
2022-08-28T05:10:58.154Z,46.43
2022-08-28T05:16:04.205Z,46.28
2022-08-28T05:21:14.445Z,46.97
2022-08-28T05:26:19.961Z,47.03
2022-08-28T05:31:23.153Z,47.33
2022-08-28T05:36:25.802Z,47.30
2022-08-28T05:41:32.797Z,47.64
2022-08-28T05:46:37.755Z,48.09
2022-08-28T05:51:41.555Z,48.58
2022-08-28T05:56:44.983Z,49.15
2022-08-28T06:01:47.822Z,49.43
2022-08-28T06:06:50.224Z,49.48
2022-08-28T06:11:54.683Z,49.91
2022-08-28T06:16:59.817Z,50.22
2022-08-28T06:22:07.312Z,50.69
2022-08-28T06:27:09.639Z,51.46
2022-08-28T06:32:11.677Z,52.43
2022-08-28T06:37:13.776Z,52.53
2022-08-28T06:42:15.983Z,52.48
2022-08-28T06:47:17.785Z,52.87
2022-08-28T06:52:20.361Z,52.55
2022-08-28T06:57:22.433Z,53.21
2022-08-28T07:02:28.191Z,53.30
2022-08-28T07:07:31.803Z,53.39
2022-08-28T07:12:34.925Z,53.31
2022-08-28T07:17:37.004Z,53.88
2022-08-28T07:22:41.169Z,53.94
2022-08-28T07:27:43.939Z,54.35
2022-08-28T07:32:49.390Z,54.27
2022-08-28T07:37:51.345Z,54.00
2022-08-28T07:43:11.704Z,53.70
2022-08-28T07:48:14.503Z,53.12
2022-08-28T07:53:16.662Z,52.72
2022-08-28T07:58:20.107Z,52.47
2022-08-28T08:03:23.037Z,52.16
2022-08-28T08:08:25.387Z,53.01
2022-08-28T08:13:29.407Z,51.10
2022-08-28T08:18:31.810Z,51.42
2022-08-28T08:23:38.993Z,50.32
2022-08-28T08:28:42.563Z,50.15
2022-08-28T08:33:47.185Z,49.08
2022-08-28T08:38:49.592Z,48.90
2022-08-28T08:44:01.608Z,46.49
2022-08-28T08:49:07.115Z,45.16
2022-08-28T08:54:12.905Z,43.87
2022-08-28T08:59:20.960Z,42.48
2022-08-28T09:04:46.561Z,39.42
2022-08-28T09:09:52.666Z,37.79
2022-08-28T09:15:07.961Z,37.11
2022-08-28T09:20:13.455Z,35.57
2022-08-28T09:25:51.347Z,34.43
2022-08-28T09:31:04.478Z,34.10
2022-08-28T09:36:31.391Z,34.93
2022-08-28T09:41:55.893Z,32.99
2022-08-28T09:46:57.986Z,31.91
2022-08-28T09:52:21.935Z,31.05
2022-08-28T09:57:27.288Z,31.56
2022-08-28T10:02:41.445Z,29.91
2022-08-28T10:07:52.907Z,30.55
2022-08-28T10:13:08.968Z,30.43
2022-08-28T10:18:10.889Z,30.51
2022-08-28T10:23:25.276Z,29.73
2022-08-28T10:29:06.050Z,29.50
2022-08-28T10:34:59.025Z,29.03
2022-08-28T10:40:05.695Z,29.83
2022-08-28T10:45:19.431Z,30.00
2022-08-28T10:50:32.546Z,29.69
2022-08-28T10:56:08.137Z,29.23
2022-08-28T11:01:14.163Z,28.35
2022-08-28T11:06:29.048Z,27.85
2022-08-28T11:12:01.535Z,27.45
2022-08-28T11:17:09.925Z,27.24
2022-08-28T11:22:20.191Z,26.27
2022-08-28T11:27:33.401Z,27.57
2022-08-28T11:32:37.289Z,28.09
2022-08-28T11:37:45.738Z,27.40
2022-08-28T11:42:51.349Z,27.89
2022-08-28T11:47:56.813Z,29.11
2022-08-28T11:53:26.737Z,28.67
2022-08-28T11:58:48.009Z,29.54
2022-08-28T12:03:55.559Z,29.20
2022-08-28T12:08:57.908Z,29.82
2022-08-28T12:14:00.089Z,30.17
2022-08-28T12:19:03.774Z,29.28
2022-08-28T12:24:22.427Z,29.04
2022-08-28T12:29:38.526Z,28.76
2022-08-28T12:34:43.804Z,29.53
2022-08-28T12:39:45.950Z,29.88
2022-08-28T12:44:48.428Z,29.44
2022-08-28T12:49:50.706Z,28.59
2022-08-28T12:54:55.537Z,27.57
2022-08-28T13:00:08.525Z,26.69
2022-08-28T13:05:28.881Z,25.35
2022-08-28T13:10:35.769Z,25.75
2022-08-28T13:15:43.547Z,26.16
2022-08-28T13:20:45.600Z,25.41
2022-08-28T13:25:47.556Z,25.35
2022-08-28T13:30:59.194Z,27.08
2022-08-28T13:36:22.654Z,26.68
2022-08-28T13:41:24.867Z,26.27
2022-08-28T13:46:27.309Z,26.01
2022-08-28T13:51:29.403Z,25.93
2022-08-28T13:56:32.014Z,25.49
2022-08-28T14:01:52.644Z,26.02
2022-08-28T14:06:54.759Z,26.20
2022-08-28T14:11:58.969Z,26.16
2022-08-28T14:17:01.974Z,27.02
2022-08-28T14:22:04.565Z,26.59
2022-08-28T14:27:06.558Z,26.30
2022-08-28T14:32:08.616Z,25.67
2022-08-28T14:37:10.859Z,25.25
2022-08-28T14:42:13.317Z,24.70
2022-08-28T14:47:15.393Z,24.65
2022-08-28T14:52:19.595Z,25.68
2022-08-28T14:57:21.571Z,26.47
2022-08-28T15:02:23.537Z,24.97
2022-08-28T15:07:25.542Z,25.33
2022-08-28T15:12:27.644Z,25.22
2022-08-28T15:17:34.361Z,24.67
2022-08-28T15:22:37.195Z,24.04
2022-08-28T15:27:39.263Z,24.63
2022-08-28T15:32:43.269Z,24.18
2022-08-28T15:37:45.998Z,24.26
2022-08-28T15:42:48.425Z,23.62
2022-08-28T15:47:50.560Z,24.12
2022-08-28T15:52:53.455Z,23.44
2022-08-28T15:57:55.509Z,22.68
2022-08-28T16:03:01.020Z,22.35
2022-08-28T16:08:03.193Z,22.13
2022-08-28T16:13:06.895Z,21.94
2022-08-28T16:18:09.632Z,22.05
2022-08-28T16:23:13.074Z,22.12
2022-08-28T16:28:15.229Z,22.06
2022-08-28T16:33:20.371Z,23.01
2022-08-28T16:38:24.379Z,22.92
2022-08-28T16:43:26.333Z,22.38
2022-08-28T16:48:28.667Z,23.20
2022-08-28T16:53:31.357Z,22.33
2022-08-28T16:58:33.357Z,22.74
2022-08-28T17:03:36.017Z,22.56
2022-08-28T17:08:38.392Z,23.38
2022-08-28T17:13:40.436Z,24.90
2022-08-28T17:18:48.156Z,24.54
2022-08-28T17:23:54.460Z,23.35
2022-08-28T17:28:56.457Z,24.26
2022-08-28T17:33:58.432Z,24.17
2022-08-28T17:39:01.601Z,25.00
2022-08-28T17:44:05.370Z,25.10
2022-08-28T17:49:08.621Z,25.46
2022-08-28T17:54:12.453Z,25.75
2022-08-28T17:59:14.950Z,26.77
2022-08-28T18:04:23.950Z,25.94
2022-08-28T18:09:26.290Z,27.51
2022-08-28T18:14:28.218Z,29.17
2022-08-28T18:19:30.348Z,27.38
2022-08-28T18:24:32.327Z,27.36
2022-08-28T18:29:36.867Z,27.13
2022-08-28T18:34:39.204Z,27.19
2022-08-28T18:39:42.282Z,26.69
2022-08-28T18:44:46.255Z,27.82
2022-08-28T18:49:48.355Z,27.67
2022-08-28T18:54:50.659Z,28.06
2022-08-28T18:59:53.218Z,28.64
2022-08-28T19:04:55.237Z,28.65
2022-08-28T19:09:58.064Z,30.05
2022-08-28T19:15:00.516Z,31.58
2022-08-28T19:20:04.960Z,28.68
2022-08-28T19:25:23.301Z,29.56
2022-08-28T19:30:33.388Z,27.84
2022-08-28T19:35:35.708Z,28.31
2022-08-28T19:40:40.369Z,28.57
2022-08-28T19:45:43.722Z,29.44
2022-08-28T19:50:45.869Z,28.37
2022-08-28T19:55:48.021Z,29.05
2022-08-28T20:00:51.556Z,29.03
2022-08-28T20:05:55.021Z,28.66
2022-08-28T20:10:57.218Z,29.18
2022-08-28T20:16:04.058Z,29.39
2022-08-28T20:21:10.896Z,29.65
2022-08-28T20:26:13.222Z,29.82
2022-08-28T20:31:17.525Z,30.52
2022-08-28T20:36:21.359Z,30.13
2022-08-28T20:41:23.993Z,30.64
2022-08-28T20:46:26.333Z,30.81
2022-08-28T20:51:47.615Z,31.22
2022-08-28T20:56:51.772Z,31.18
2022-08-28T21:01:55.400Z,31.83
2022-08-28T21:06:58.019Z,32.04
2022-08-28T21:12:00.296Z,32.64
2022-08-28T21:17:02.744Z,32.78
2022-08-28T21:22:04.856Z,32.99
2022-08-28T21:27:09.596Z,33.33
2022-08-28T21:32:11.671Z,33.85
2022-08-28T21:37:13.600Z,34.00
2022-08-28T21:42:15.544Z,34.40
2022-08-28T21:47:17.529Z,34.49
2022-08-28T21:52:20.688Z,35.33
2022-08-28T21:57:22.738Z,35.08
2022-08-28T22:02:25.505Z,35.72
2022-08-28T22:07:27.483Z,35.83
2022-08-28T22:12:29.454Z,36.62
2022-08-28T22:17:34.648Z,36.69
2022-08-28T22:22:55.311Z,37.08
2022-08-28T22:27:57.415Z,37.42
2022-08-28T22:33:00.938Z,37.98
2022-08-28T22:38:03.531Z,38.10
2022-08-28T22:43:05.617Z,38.46
2022-08-28T22:48:07.768Z,38.75
2022-08-28T22:53:10.650Z,38.70
2022-08-28T22:58:13.177Z,39.38
2022-08-28T23:03:15.332Z,39.52
2022-08-28T23:08:17.483Z,40.11
2022-08-28T23:13:20.313Z,40.22
2022-08-28T23:18:22.509Z,40.69
2022-08-28T23:23:25.032Z,40.52
2022-08-28T23:28:27.014Z,40.98
2022-08-28T23:33:29.021Z,41.40
2022-08-28T23:38:31.043Z,41.97
2022-08-28T23:43:33.891Z,42.44
2022-08-28T23:48:35.961Z,42.92
2022-08-28T23:53:42.344Z,44.20
2022-08-28T23:58:45.518Z,45.71
